Bettles Field, AK (99726)

6:19 AM AKDT on September 25, 2016 (GMT -0800)
Coldfoot Airport | | Change Station

Elev 1100 ft 67.25 °N, 150.20 °W | Updated 13 minutes ago

Mostly Cloudy
Mostly Cloudy
33.1 °F
Feels Like 33 °F
N
0.0
Wind Variable Wind from WNW

Today
High -- | Low -- °F
--% Chance of Precip.
Yesterday
High -- | Low -- °F
Precip. -- in
Pressure 29.86 in
Visibility 10.0 miles
Clouds Few 1400 ft
Mostly Cloudy 3000 ft
Mostly Cloudy 5500 ft
Windchill 33 °F
Dew Point 32 °F
Humidity 97%
Rainfall 0.00 in
Snow Depth Not available.
7:57 AM 7:49 PM
Waning Crescent, 27% visible
METAR PABT 251353Z 00000KT 10SM FEW014 BKN030 BKN055 M01/M02 A2981 RMK AO2 SLP109 T10061017
Pressure 29.86 in
Visibility 10.0 miles
Clouds Few 1400 ft
Mostly Cloudy 3000 ft
Mostly Cloudy 5500 ft
Windchill 33 °F
Dew Point 32 °F
Humidity 97%
Rainfall 0.00 in
Snow Depth Not available.
7:57 AM 7:49 PM
Waning Crescent, 27% visible
METAR PABT 251353Z 00000KT 10SM FEW014 BKN030 BKN055 M01/M02 A2981 RMK AO2 SLP109 T10061017

10-Day Weather Forecast

Almanac

Astronomy

Sep. 25, 2016 Rise Set
Actual Time
Civil Twilight
Nautical Twilight
Astronomical Twilight
Moon
Length of Visible Light
Length of Day
Tomorrow will be .
, % of the Moon is Illuminated

Today's Extremes

State Highs State Lows

Community

WunderPhotos

Upload Photos

1,941,618 photos uploaded!

WunderBlog® & News

Nearby

Air Quality

  Air Quality AQ Index Pollutant
Not available.

Snow Depth

Station Depth Elevation

Earthquake Activity

City Distance Mag. Time & Date
Minimum magnitude displayed is 2.5.

Coastal Water Temperatures

Place Temperature

Stations

Nearby Weather Stations

Station Location Temp. Windchill Dew Point Humidity Wind Precip. Elev Updated Type
                   

Watches & Warnings

There are currently no watches in effect.